<?xml version="1.0" encoding="UTF-8" standalone="no" ?>
<gpx xmlns="http://www.topografix.com/GPX/1/1" xmlns:xsi="http://www.w3.org/2001/XMLSchema-instance" xsi:schemaLocation="http://www.topografix.com/GPX/1/1 http://www.topografix.com/GPX/1/1/gpx.xsd" version="1.1" creator="VisuGPX - https://www.visugpx.com">
  <metadata>
    <name>CLAIREFONTAINE 1</name>
  </metadata>
  <trk>
    <name><![CDATA[CLAIREFONTAINE 1]]></name>
    <trkseg>
      <trkpt lat="48.61032" lon="1.91149">
        <ele>127</ele>
        <time>2019-04-30T07:14:33Z</time>
      </trkpt>
      <trkpt lat="48.61038" lon="1.91129">
        <ele>127</ele>
        <time>2019-04-30T07:15:01Z</time>
      </trkpt>
      <trkpt lat="48.61036" lon="1.91124">
        <ele>127</ele>
        <time>2019-04-30T07:15:33Z</time>
      </trkpt>
      <trkpt lat="48.61028" lon="1.91134">
        <ele>127</ele>
        <time>2019-04-30T07:16:03Z</time>
      </trkpt>
      <trkpt lat="48.61013" lon="1.91147">
        <ele>128</ele>
        <time>2019-04-30T07:16:35Z</time>
      </trkpt>
      <trkpt lat="48.61017" lon="1.91144">
        <ele>127</ele>
        <time>2019-04-30T07:17:01Z</time>
      </trkpt>
      <trkpt lat="48.61019" lon="1.91142">
        <ele>127</ele>
        <time>2019-04-30T07:17:30Z</time>
      </trkpt>
      <trkpt lat="48.61017" lon="1.91147">
        <ele>127</ele>
        <time>2019-04-30T07:17:58Z</time>
      </trkpt>
      <trkpt lat="48.61015" lon="1.9115">
        <ele>127</ele>
        <time>2019-04-30T07:18:07Z</time>
      </trkpt>
      <trkpt lat="48.61013" lon="1.91148">
        <ele>128</ele>
        <time>2019-04-30T07:18:27Z</time>
      </trkpt>
      <trkpt lat="48.6102" lon="1.91144">
        <ele>127</ele>
        <time>2019-04-30T07:18:40Z</time>
      </trkpt>
      <trkpt lat="48.61023" lon="1.91143">
        <ele>127</ele>
        <time>2019-04-30T07:19:01Z</time>
      </trkpt>
      <trkpt lat="48.61022" lon="1.91141">
        <ele>127</ele>
        <time>2019-04-30T07:19:20Z</time>
      </trkpt>
      <trkpt lat="48.61018" lon="1.9115">
        <ele>127</ele>
        <time>2019-04-30T07:19:36Z</time>
      </trkpt>
      <trkpt lat="48.61011" lon="1.91161">
        <ele>127</ele>
        <time>2019-04-30T07:19:47Z</time>
      </trkpt>
      <trkpt lat="48.61008" lon="1.91168">
        <ele>127</ele>
        <time>2019-04-30T07:19:54Z</time>
      </trkpt>
      <trkpt lat="48.61008" lon="1.91173">
        <ele>127</ele>
        <time>2019-04-30T07:19:57Z</time>
      </trkpt>
      <trkpt lat="48.61004" lon="1.91197">
        <ele>127</ele>
        <time>2019-04-30T07:20:11Z</time>
      </trkpt>
      <trkpt lat="48.61002" lon="1.912">
        <ele>127</ele>
        <time>2019-04-30T07:20:13Z</time>
      </trkpt>
      <trkpt lat="48.61001" lon="1.91203">
        <ele>127</ele>
        <time>2019-04-30T07:20:15Z</time>
      </trkpt>
      <trkpt lat="48.60986" lon="1.91217">
        <ele>129</ele>
        <time>2019-04-30T07:20:29Z</time>
      </trkpt>
      <trkpt lat="48.60974" lon="1.91226">
        <ele>129</ele>
        <time>2019-04-30T07:20:44Z</time>
      </trkpt>
      <trkpt lat="48.60965" lon="1.91243">
        <ele>130</ele>
        <time>2019-04-30T07:20:57Z</time>
      </trkpt>
      <trkpt lat="48.60949" lon="1.91256">
        <ele>130</ele>
        <time>2019-04-30T07:21:12Z</time>
      </trkpt>
      <trkpt lat="48.60927" lon="1.91262">
        <ele>129</ele>
        <time>2019-04-30T07:21:26Z</time>
      </trkpt>
      <trkpt lat="48.60903" lon="1.91267">
        <ele>130</ele>
        <time>2019-04-30T07:21:40Z</time>
      </trkpt>
      <trkpt lat="48.60874" lon="1.91255">
        <ele>130</ele>
        <time>2019-04-30T07:21:56Z</time>
      </trkpt>
      <trkpt lat="48.6085" lon="1.91231">
        <ele>130</ele>
        <time>2019-04-30T07:22:11Z</time>
      </trkpt>
      <trkpt lat="48.60823" lon="1.9122">
        <ele>130</ele>
        <time>2019-04-30T07:22:28Z</time>
      </trkpt>
      <trkpt lat="48.60799" lon="1.9122">
        <ele>131</ele>
        <time>2019-04-30T07:22:44Z</time>
      </trkpt>
      <trkpt lat="48.60778" lon="1.91223">
        <ele>129</ele>
        <time>2019-04-30T07:22:58Z</time>
      </trkpt>
      <trkpt lat="48.60753" lon="1.9123">
        <ele>129</ele>
        <time>2019-04-30T07:23:18Z</time>
      </trkpt>
      <trkpt lat="48.60729" lon="1.91242">
        <ele>129</ele>
        <time>2019-04-30T07:23:36Z</time>
      </trkpt>
      <trkpt lat="48.60711" lon="1.91247">
        <ele>129</ele>
        <time>2019-04-30T07:23:46Z</time>
      </trkpt>
      <trkpt lat="48.6068" lon="1.91244">
        <ele>128</ele>
        <time>2019-04-30T07:24:07Z</time>
      </trkpt>
      <trkpt lat="48.60659" lon="1.91244">
        <ele>128</ele>
        <time>2019-04-30T07:24:23Z</time>
      </trkpt>
      <trkpt lat="48.6064" lon="1.91248">
        <ele>129</ele>
        <time>2019-04-30T07:24:40Z</time>
      </trkpt>
      <trkpt lat="48.60609" lon="1.91246">
        <ele>130</ele>
        <time>2019-04-30T07:24:54Z</time>
      </trkpt>
      <trkpt lat="48.60585" lon="1.91225">
        <ele>130</ele>
        <time>2019-04-30T07:25:03Z</time>
      </trkpt>
      <trkpt lat="48.60573" lon="1.91201">
        <ele>131</ele>
        <time>2019-04-30T07:25:13Z</time>
      </trkpt>
      <trkpt lat="48.60559" lon="1.9118">
        <ele>131</ele>
        <time>2019-04-30T07:25:24Z</time>
      </trkpt>
      <trkpt lat="48.6054" lon="1.91166">
        <ele>130</ele>
        <time>2019-04-30T07:25:35Z</time>
      </trkpt>
      <trkpt lat="48.60524" lon="1.91158">
        <ele>130</ele>
        <time>2019-04-30T07:25:45Z</time>
      </trkpt>
      <trkpt lat="48.60505" lon="1.91155">
        <ele>130</ele>
        <time>2019-04-30T07:25:56Z</time>
      </trkpt>
      <trkpt lat="48.60477" lon="1.91134">
        <ele>131</ele>
        <time>2019-04-30T07:26:10Z</time>
      </trkpt>
      <trkpt lat="48.60452" lon="1.91128">
        <ele>132</ele>
        <time>2019-04-30T07:26:22Z</time>
      </trkpt>
      <trkpt lat="48.6043" lon="1.91127">
        <ele>133</ele>
        <time>2019-04-30T07:26:33Z</time>
      </trkpt>
      <trkpt lat="48.60386" lon="1.91109">
        <ele>136</ele>
        <time>2019-04-30T07:26:47Z</time>
      </trkpt>
      <trkpt lat="48.60351" lon="1.91085">
        <ele>138</ele>
        <time>2019-04-30T07:27:05Z</time>
      </trkpt>
      <trkpt lat="48.60324" lon="1.91064">
        <ele>138</ele>
        <time>2019-04-30T07:27:18Z</time>
      </trkpt>
      <trkpt lat="48.60301" lon="1.91049">
        <ele>136</ele>
        <time>2019-04-30T07:27:20Z</time>
      </trkpt>
      <trkpt lat="48.60277" lon="1.91023">
        <ele>135</ele>
        <time>2019-04-30T07:27:29Z</time>
      </trkpt>
      <trkpt lat="48.60251" lon="1.91001">
        <ele>136</ele>
        <time>2019-04-30T07:27:47Z</time>
      </trkpt>
      <trkpt lat="48.60244" lon="1.91033">
        <ele>135</ele>
        <time>2019-04-30T07:28:00Z</time>
      </trkpt>
      <trkpt lat="48.60232" lon="1.91065">
        <ele>136</ele>
        <time>2019-04-30T07:28:13Z</time>
      </trkpt>
      <trkpt lat="48.6022" lon="1.91103">
        <ele>135</ele>
        <time>2019-04-30T07:28:22Z</time>
      </trkpt>
      <trkpt lat="48.60196" lon="1.91156">
        <ele>134</ele>
        <time>2019-04-30T07:28:36Z</time>
      </trkpt>
      <trkpt lat="48.60174" lon="1.91215">
        <ele>133</ele>
        <time>2019-04-30T07:28:47Z</time>
      </trkpt>
      <trkpt lat="48.60162" lon="1.91261">
        <ele>132</ele>
        <time>2019-04-30T07:28:54Z</time>
      </trkpt>
      <trkpt lat="48.60155" lon="1.91285">
        <ele>131</ele>
        <time>2019-04-30T07:29:02Z</time>
      </trkpt>
      <trkpt lat="48.60138" lon="1.91348">
        <ele>133</ele>
        <time>2019-04-30T07:29:07Z</time>
      </trkpt>
      <trkpt lat="48.60127" lon="1.91377">
        <ele>134</ele>
        <time>2019-04-30T07:29:16Z</time>
      </trkpt>
      <trkpt lat="48.60112" lon="1.914">
        <ele>135</ele>
        <time>2019-04-30T07:29:25Z</time>
      </trkpt>
      <trkpt lat="48.60096" lon="1.91431">
        <ele>135</ele>
        <time>2019-04-30T07:29:29Z</time>
      </trkpt>
      <trkpt lat="48.60078" lon="1.91466">
        <ele>134</ele>
        <time>2019-04-30T07:29:34Z</time>
      </trkpt>
      <trkpt lat="48.60059" lon="1.91503">
        <ele>134</ele>
        <time>2019-04-30T07:29:38Z</time>
      </trkpt>
      <trkpt lat="48.60036" lon="1.91559">
        <ele>134</ele>
        <time>2019-04-30T07:29:42Z</time>
      </trkpt>
      <trkpt lat="48.60025" lon="1.91589">
        <ele>133</ele>
        <time>2019-04-30T07:29:46Z</time>
      </trkpt>
      <trkpt lat="48.6002" lon="1.91606">
        <ele>131</ele>
        <time>2019-04-30T07:29:59Z</time>
      </trkpt>
      <trkpt lat="48.60013" lon="1.91634">
        <ele>132</ele>
        <time>2019-04-30T07:30:14Z</time>
      </trkpt>
      <trkpt lat="48.60003" lon="1.91656">
        <ele>130</ele>
        <time>2019-04-30T07:30:30Z</time>
      </trkpt>
      <trkpt lat="48.59984" lon="1.91689">
        <ele>129</ele>
        <time>2019-04-30T07:30:41Z</time>
      </trkpt>
      <trkpt lat="48.59954" lon="1.91738">
        <ele>132</ele>
        <time>2019-04-30T07:30:52Z</time>
      </trkpt>
      <trkpt lat="48.59929" lon="1.91781">
        <ele>136</ele>
        <time>2019-04-30T07:31:07Z</time>
      </trkpt>
      <trkpt lat="48.59906" lon="1.91824">
        <ele>135</ele>
        <time>2019-04-30T07:31:24Z</time>
      </trkpt>
      <trkpt lat="48.59889" lon="1.91861">
        <ele>134</ele>
        <time>2019-04-30T07:31:36Z</time>
      </trkpt>
      <trkpt lat="48.59879" lon="1.91871">
        <ele>134</ele>
        <time>2019-04-30T07:31:47Z</time>
      </trkpt>
      <trkpt lat="48.59875" lon="1.91887">
        <ele>134</ele>
        <time>2019-04-30T07:31:55Z</time>
      </trkpt>
      <trkpt lat="48.59872" lon="1.91902">
        <ele>134</ele>
        <time>2019-04-30T07:32:00Z</time>
      </trkpt>
      <trkpt lat="48.59862" lon="1.91936">
        <ele>131</ele>
        <time>2019-04-30T07:32:11Z</time>
      </trkpt>
      <trkpt lat="48.59848" lon="1.91981">
        <ele>131</ele>
        <time>2019-04-30T07:32:14Z</time>
      </trkpt>
      <trkpt lat="48.5983" lon="1.92044">
        <ele>132</ele>
        <time>2019-04-30T07:32:21Z</time>
      </trkpt>
      <trkpt lat="48.5982" lon="1.92079">
        <ele>132</ele>
        <time>2019-04-30T07:32:29Z</time>
      </trkpt>
      <trkpt lat="48.59805" lon="1.92133">
        <ele>133</ele>
        <time>2019-04-30T07:32:42Z</time>
      </trkpt>
      <trkpt lat="48.59786" lon="1.92206">
        <ele>134</ele>
        <time>2019-04-30T07:32:43Z</time>
      </trkpt>
      <trkpt lat="48.59778" lon="1.92237">
        <ele>134</ele>
        <time>2019-04-30T07:32:53Z</time>
      </trkpt>
      <trkpt lat="48.59757" lon="1.92318">
        <ele>134</ele>
        <time>2019-04-30T07:33:00Z</time>
      </trkpt>
      <trkpt lat="48.59748" lon="1.92355">
        <ele>137</ele>
        <time>2019-04-30T07:33:08Z</time>
      </trkpt>
      <trkpt lat="48.59738" lon="1.92405">
        <ele>137</ele>
        <time>2019-04-30T07:33:15Z</time>
      </trkpt>
      <trkpt lat="48.59729" lon="1.92462">
        <ele>136</ele>
        <time>2019-04-30T07:33:16Z</time>
      </trkpt>
      <trkpt lat="48.59727" lon="1.92488">
        <ele>134</ele>
        <time>2019-04-30T07:33:25Z</time>
      </trkpt>
      <trkpt lat="48.59739" lon="1.92588">
        <ele>133</ele>
        <time>2019-04-30T07:33:26Z</time>
      </trkpt>
      <trkpt lat="48.59742" lon="1.92613">
        <ele>133</ele>
        <time>2019-04-30T07:33:27Z</time>
      </trkpt>
      <trkpt lat="48.59744" lon="1.92637">
        <ele>133</ele>
        <time>2019-04-30T07:33:28Z</time>
      </trkpt>
      <trkpt lat="48.59751" lon="1.92698">
        <ele>133</ele>
        <time>2019-04-30T07:33:29Z</time>
      </trkpt>
      <trkpt lat="48.59754" lon="1.92721">
        <ele>133</ele>
        <time>2019-04-30T07:33:37Z</time>
      </trkpt>
      <trkpt lat="48.5976" lon="1.92777">
        <ele>132</ele>
        <time>2019-04-30T07:33:38Z</time>
      </trkpt>
      <trkpt lat="48.59761" lon="1.92782">
        <ele>132</ele>
        <time>2019-04-30T07:33:46Z</time>
      </trkpt>
      <trkpt lat="48.59735" lon="1.92793">
        <ele>132</ele>
        <time>2019-04-30T07:33:48Z</time>
      </trkpt>
      <trkpt lat="48.597" lon="1.92812">
        <ele>133</ele>
        <time>2019-04-30T07:33:49Z</time>
      </trkpt>
      <trkpt lat="48.5965" lon="1.92837">
        <ele>136</ele>
        <time>2019-04-30T07:34:00Z</time>
      </trkpt>
      <trkpt lat="48.5964" lon="1.92841">
        <ele>136</ele>
        <time>2019-04-30T07:34:03Z</time>
      </trkpt>
      <trkpt lat="48.59611" lon="1.92864">
        <ele>136</ele>
        <time>2019-04-30T07:34:04Z</time>
      </trkpt>
      <trkpt lat="48.59567" lon="1.92903">
        <ele>134</ele>
        <time>2019-04-30T07:34:05Z</time>
      </trkpt>
      <trkpt lat="48.59543" lon="1.92922">
        <ele>134</ele>
        <time>2019-04-30T07:34:06Z</time>
      </trkpt>
      <trkpt lat="48.59554" lon="1.92949">
        <ele>134</ele>
        <time>2019-04-30T07:34:18Z</time>
      </trkpt>
      <trkpt lat="48.59555" lon="1.92958">
        <ele>134</ele>
        <time>2019-04-30T07:34:23Z</time>
      </trkpt>
      <trkpt lat="48.59555" lon="1.9296">
        <ele>133</ele>
        <time>2019-04-30T07:34:24Z</time>
      </trkpt>
      <trkpt lat="48.59561" lon="1.9298">
        <ele>133</ele>
        <time>2019-04-30T07:34:25Z</time>
      </trkpt>
      <trkpt lat="48.59574" lon="1.93005">
        <ele>130</ele>
        <time>2019-04-30T07:34:26Z</time>
      </trkpt>
      <trkpt lat="48.59581" lon="1.93023">
        <ele>130</ele>
        <time>2019-04-30T07:34:37Z</time>
      </trkpt>
      <trkpt lat="48.59589" lon="1.9304">
        <ele>130</ele>
        <time>2019-04-30T07:34:40Z</time>
      </trkpt>
      <trkpt lat="48.59589" lon="1.93043">
        <ele>130</ele>
        <time>2019-04-30T07:34:41Z</time>
      </trkpt>
      <trkpt lat="48.5959" lon="1.93046">
        <ele>130</ele>
        <time>2019-04-30T07:34:42Z</time>
      </trkpt>
      <trkpt lat="48.59599" lon="1.93065">
        <ele>130</ele>
        <time>2019-04-30T07:34:43Z</time>
      </trkpt>
      <trkpt lat="48.5961" lon="1.9309">
        <ele>130</ele>
        <time>2019-04-30T07:34:44Z</time>
      </trkpt>
      <trkpt lat="48.59616" lon="1.93109">
        <ele>130</ele>
        <time>2019-04-30T07:34:45Z</time>
      </trkpt>
      <trkpt lat="48.59622" lon="1.93129">
        <ele>131</ele>
        <time>2019-04-30T07:34:50Z</time>
      </trkpt>
      <trkpt lat="48.59627" lon="1.93138">
        <ele>130</ele>
        <time>2019-04-30T07:34:51Z</time>
      </trkpt>
      <trkpt lat="48.59638" lon="1.93167">
        <ele>132</ele>
        <time>2019-04-30T07:34:53Z</time>
      </trkpt>
      <trkpt lat="48.59648" lon="1.93191">
        <ele>133</ele>
        <time>2019-04-30T07:34:54Z</time>
      </trkpt>
      <trkpt lat="48.59661" lon="1.93223">
        <ele>133</ele>
        <time>2019-04-30T07:34:55Z</time>
      </trkpt>
      <trkpt lat="48.59675" lon="1.9325">
        <ele>133</ele>
        <time>2019-04-30T07:34:56Z</time>
      </trkpt>
      <trkpt lat="48.5969" lon="1.93275">
        <ele>131</ele>
        <time>2019-04-30T07:34:57Z</time>
      </trkpt>
      <trkpt lat="48.59794" lon="1.93492">
        <ele>126</ele>
        <time>2019-04-30T07:34:58Z</time>
      </trkpt>
      <trkpt lat="48.59813" lon="1.93516">
        <ele>125</ele>
        <time>2019-04-30T07:34:59Z</time>
      </trkpt>
      <trkpt lat="48.59804" lon="1.93556">
        <ele>123</ele>
        <time>2019-04-30T07:35:00Z</time>
      </trkpt>
      <trkpt lat="48.59796" lon="1.93613">
        <ele>122</ele>
        <time>2019-04-30T07:35:01Z</time>
      </trkpt>
      <trkpt lat="48.59801" lon="1.93645">
        <ele>123</ele>
        <time>2019-04-30T07:35:02Z</time>
      </trkpt>
      <trkpt lat="48.598" lon="1.93689">
        <ele>126</ele>
        <time>2019-04-30T07:35:03Z</time>
      </trkpt>
      <trkpt lat="48.59801" lon="1.93693">
        <ele>126</ele>
        <time>2019-04-30T07:35:04Z</time>
      </trkpt>
      <trkpt lat="48.59803" lon="1.93709">
        <ele>127</ele>
        <time>2019-04-30T07:35:05Z</time>
      </trkpt>
      <trkpt lat="48.59803" lon="1.93711">
        <ele>127</ele>
        <time>2019-04-30T07:35:09Z</time>
      </trkpt>
      <trkpt lat="48.59806" lon="1.93729">
        <ele>127</ele>
        <time>2019-04-30T07:35:10Z</time>
      </trkpt>
      <trkpt lat="48.59807" lon="1.93731">
        <ele>127</ele>
        <time>2019-04-30T07:35:11Z</time>
      </trkpt>
      <trkpt lat="48.59807" lon="1.93733">
        <ele>127</ele>
        <time>2019-04-30T07:35:12Z</time>
      </trkpt>
      <trkpt lat="48.59808" lon="1.93734">
        <ele>127</ele>
        <time>2019-04-30T07:35:13Z</time>
      </trkpt>
      <trkpt lat="48.59812" lon="1.93763">
        <ele>127</ele>
        <time>2019-04-30T07:35:14Z</time>
      </trkpt>
      <trkpt lat="48.59816" lon="1.93783">
        <ele>127</ele>
        <time>2019-04-30T07:35:15Z</time>
      </trkpt>
      <trkpt lat="48.59819" lon="1.93805">
        <ele>126</ele>
        <time>2019-04-30T07:35:16Z</time>
      </trkpt>
      <trkpt lat="48.59828" lon="1.9383">
        <ele>127</ele>
        <time>2019-04-30T07:35:17Z</time>
      </trkpt>
      <trkpt lat="48.59831" lon="1.93848">
        <ele>127</ele>
        <time>2019-04-30T07:35:18Z</time>
      </trkpt>
      <trkpt lat="48.59835" lon="1.93868">
        <ele>127</ele>
        <time>2019-04-30T07:35:19Z</time>
      </trkpt>
      <trkpt lat="48.59834" lon="1.93893">
        <ele>129</ele>
        <time>2019-04-30T07:35:20Z</time>
      </trkpt>
      <trkpt lat="48.59832" lon="1.93911">
        <ele>129</ele>
        <time>2019-04-30T07:35:23Z</time>
      </trkpt>
      <trkpt lat="48.59825" lon="1.93921">
        <ele>129</ele>
        <time>2019-04-30T07:35:24Z</time>
      </trkpt>
      <trkpt lat="48.59823" lon="1.93939">
        <ele>128</ele>
        <time>2019-04-30T07:35:26Z</time>
      </trkpt>
      <trkpt lat="48.59818" lon="1.93947">
        <ele>128</ele>
        <time>2019-04-30T07:35:27Z</time>
      </trkpt>
      <trkpt lat="48.59807" lon="1.93951">
        <ele>128</ele>
        <time>2019-04-30T07:35:32Z</time>
      </trkpt>
      <trkpt lat="48.59781" lon="1.93951">
        <ele>125</ele>
        <time>2019-04-30T07:35:33Z</time>
      </trkpt>
      <trkpt lat="48.59794" lon="1.93965">
        <ele>127</ele>
        <time>2019-04-30T07:35:34Z</time>
      </trkpt>
      <trkpt lat="48.59822" lon="1.93993">
        <ele>126</ele>
        <time>2019-04-30T07:35:35Z</time>
      </trkpt>
      <trkpt lat="48.59846" lon="1.94016">
        <ele>126</ele>
        <time>2019-04-30T07:35:36Z</time>
      </trkpt>
      <trkpt lat="48.59837" lon="1.94051">
        <ele>126</ele>
        <time>2019-04-30T07:35:37Z</time>
      </trkpt>
      <trkpt lat="48.59795" lon="1.9422">
        <ele>127</ele>
        <time>2019-04-30T07:35:44Z</time>
      </trkpt>
      <trkpt lat="48.59765" lon="1.94275">
        <ele>127</ele>
        <time>2019-04-30T07:35:46Z</time>
      </trkpt>
      <trkpt lat="48.59743" lon="1.94312">
        <ele>126</ele>
        <time>2019-04-30T07:35:58Z</time>
      </trkpt>
      <trkpt lat="48.59725" lon="1.94331">
        <ele>126</ele>
        <time>2019-04-30T07:36:09Z</time>
      </trkpt>
      <trkpt lat="48.59712" lon="1.94368">
        <ele>125</ele>
        <time>2019-04-30T07:36:22Z</time>
      </trkpt>
      <trkpt lat="48.59708" lon="1.94376">
        <ele>125</ele>
        <time>2019-04-30T07:36:35Z</time>
      </trkpt>
      <trkpt lat="48.59705" lon="1.94382">
        <ele>125</ele>
        <time>2019-04-30T07:36:44Z</time>
      </trkpt>
      <trkpt lat="48.59693" lon="1.94389">
        <ele>125</ele>
        <time>2019-04-30T07:36:45Z</time>
      </trkpt>
      <trkpt lat="48.59539" lon="1.94548">
        <ele>127</ele>
        <time>2019-04-30T07:36:46Z</time>
      </trkpt>
      <trkpt lat="48.59475" lon="1.94617">
        <ele>128</ele>
        <time>2019-04-30T07:37:00Z</time>
      </trkpt>
      <trkpt lat="48.59348" lon="1.94744">
        <ele>133</ele>
        <time>2019-04-30T07:37:09Z</time>
      </trkpt>
      <trkpt lat="48.59252" lon="1.94834">
        <ele>134</ele>
        <time>2019-04-30T07:37:10Z</time>
      </trkpt>
      <trkpt lat="48.59156" lon="1.94967">
        <ele>134</ele>
        <time>2019-04-30T07:37:11Z</time>
      </trkpt>
      <trkpt lat="48.59066" lon="1.95105">
        <ele>132</ele>
        <time>2019-04-30T07:37:19Z</time>
      </trkpt>
      <trkpt lat="48.59051" lon="1.95127">
        <ele>132</ele>
        <time>2019-04-30T07:37:20Z</time>
      </trkpt>
      <trkpt lat="48.59103" lon="1.95181">
        <ele>130</ele>
        <time>2019-04-30T07:37:21Z</time>
      </trkpt>
      <trkpt lat="48.59182" lon="1.95264">
        <ele>131</ele>
        <time>2019-04-30T07:37:22Z</time>
      </trkpt>
      <trkpt lat="48.59226" lon="1.95303">
        <ele>132</ele>
        <time>2019-04-30T07:37:23Z</time>
      </trkpt>
      <trkpt lat="48.59268" lon="1.95349">
        <ele>130</ele>
        <time>2019-04-30T07:37:24Z</time>
      </trkpt>
      <trkpt lat="48.59342" lon="1.95419">
        <ele>126</ele>
        <time>2019-04-30T07:37:27Z</time>
      </trkpt>
      <trkpt lat="48.59405" lon="1.95477">
        <ele>125</ele>
        <time>2019-04-30T07:37:28Z</time>
      </trkpt>
      <trkpt lat="48.59456" lon="1.95538">
        <ele>125</ele>
        <time>2019-04-30T07:37:29Z</time>
      </trkpt>
      <trkpt lat="48.59478" lon="1.95555">
        <ele>123</ele>
        <time>2019-04-30T07:37:41Z</time>
      </trkpt>
      <trkpt lat="48.59487" lon="1.95563">
        <ele>123</ele>
        <time>2019-04-30T07:37:44Z</time>
      </trkpt>
      <trkpt lat="48.59489" lon="1.95564">
        <ele>123</ele>
        <time>2019-04-30T07:37:55Z</time>
      </trkpt>
      <trkpt lat="48.59505" lon="1.95582">
        <ele>121</ele>
        <time>2019-04-30T07:38:06Z</time>
      </trkpt>
      <trkpt lat="48.59511" lon="1.9558">
        <ele>121</ele>
        <time>2019-04-30T07:38:17Z</time>
      </trkpt>
      <trkpt lat="48.59519" lon="1.95596">
        <ele>121</ele>
        <time>2019-04-30T07:38:25Z</time>
      </trkpt>
      <trkpt lat="48.59532" lon="1.9561">
        <ele>119</ele>
        <time>2019-04-30T07:38:26Z</time>
      </trkpt>
      <trkpt lat="48.59552" lon="1.9563">
        <ele>119</ele>
        <time>2019-04-30T07:38:27Z</time>
      </trkpt>
      <trkpt lat="48.59569" lon="1.95644">
        <ele>119</ele>
        <time>2019-04-30T07:38:28Z</time>
      </trkpt>
      <trkpt lat="48.59575" lon="1.95648">
        <ele>120</ele>
        <time>2019-04-30T07:38:29Z</time>
      </trkpt>
      <trkpt lat="48.59597" lon="1.95654">
        <ele>121</ele>
        <time>2019-04-30T07:38:32Z</time>
      </trkpt>
      <trkpt lat="48.59619" lon="1.95648">
        <ele>120</ele>
        <time>2019-04-30T07:38:33Z</time>
      </trkpt>
      <trkpt lat="48.59628" lon="1.95648">
        <ele>121</ele>
        <time>2019-04-30T07:38:39Z</time>
      </trkpt>
      <trkpt lat="48.59652" lon="1.9565">
        <ele>121</ele>
        <time>2019-04-30T07:38:40Z</time>
      </trkpt>
      <trkpt lat="48.59658" lon="1.95651">
        <ele>122</ele>
        <time>2019-04-30T07:38:41Z</time>
      </trkpt>
      <trkpt lat="48.59671" lon="1.95661">
        <ele>123</ele>
        <time>2019-04-30T07:38:54Z</time>
      </trkpt>
      <trkpt lat="48.59677" lon="1.95664">
        <ele>123</ele>
        <time>2019-04-30T07:39:06Z</time>
      </trkpt>
      <trkpt lat="48.59678" lon="1.95664">
        <ele>123</ele>
        <time>2019-04-30T07:39:11Z</time>
      </trkpt>
      <trkpt lat="48.59682" lon="1.95681">
        <ele>125</ele>
        <time>2019-04-30T07:39:12Z</time>
      </trkpt>
      <trkpt lat="48.59711" lon="1.95692">
        <ele>125</ele>
        <time>2019-04-30T07:39:19Z</time>
      </trkpt>
      <trkpt lat="48.59768" lon="1.957">
        <ele>126</ele>
        <time>2019-04-30T07:39:23Z</time>
      </trkpt>
      <trkpt lat="48.59795" lon="1.957">
        <ele>127</ele>
        <time>2019-04-30T07:39:27Z</time>
      </trkpt>
      <trkpt lat="48.59797" lon="1.957">
        <ele>127</ele>
        <time>2019-04-30T07:39:39Z</time>
      </trkpt>
      <trkpt lat="48.59799" lon="1.95699">
        <ele>127</ele>
        <time>2019-04-30T07:39:51Z</time>
      </trkpt>
      <trkpt lat="48.59814" lon="1.95698">
        <ele>127</ele>
        <time>2019-04-30T07:40:01Z</time>
      </trkpt>
      <trkpt lat="48.59872" lon="1.95687">
        <ele>126</ele>
        <time>2019-04-30T07:40:02Z</time>
      </trkpt>
      <trkpt lat="48.59908" lon="1.95601">
        <ele>123</ele>
        <time>2019-04-30T07:40:10Z</time>
      </trkpt>
      <trkpt lat="48.5994" lon="1.95533">
        <ele>122</ele>
        <time>2019-04-30T07:40:11Z</time>
      </trkpt>
      <trkpt lat="48.60017" lon="1.95361">
        <ele>120</ele>
        <time>2019-04-30T07:40:13Z</time>
      </trkpt>
      <trkpt lat="48.60041" lon="1.95313">
        <ele>124</ele>
        <time>2019-04-30T07:40:25Z</time>
      </trkpt>
      <trkpt lat="48.6007" lon="1.9528">
        <ele>121</ele>
        <time>2019-04-30T07:40:27Z</time>
      </trkpt>
      <trkpt lat="48.60074" lon="1.95273">
        <ele>121</ele>
        <time>2019-04-30T07:40:28Z</time>
      </trkpt>
      <trkpt lat="48.60093" lon="1.95244">
        <ele>122</ele>
        <time>2019-04-30T07:40:30Z</time>
      </trkpt>
      <trkpt lat="48.60195" lon="1.952">
        <ele>122</ele>
        <time>2019-04-30T07:40:31Z</time>
      </trkpt>
      <trkpt lat="48.60218" lon="1.95196">
        <ele>122</ele>
        <time>2019-04-30T07:40:32Z</time>
      </trkpt>
      <trkpt lat="48.60233" lon="1.9519">
        <ele>122</ele>
        <time>2019-04-30T07:40:33Z</time>
      </trkpt>
      <trkpt lat="48.60256" lon="1.95176">
        <ele>123</ele>
        <time>2019-04-30T07:40:34Z</time>
      </trkpt>
      <trkpt lat="48.60273" lon="1.95168">
        <ele>124</ele>
        <time>2019-04-30T07:40:35Z</time>
      </trkpt>
      <trkpt lat="48.60284" lon="1.95162">
        <ele>124</ele>
        <time>2019-04-30T07:40:36Z</time>
      </trkpt>
      <trkpt lat="48.60296" lon="1.95158">
        <ele>123</ele>
        <time>2019-04-30T07:40:37Z</time>
      </trkpt>
      <trkpt lat="48.60313" lon="1.95147">
        <ele>123</ele>
        <time>2019-04-30T07:40:38Z</time>
      </trkpt>
      <trkpt lat="48.60342" lon="1.95131">
        <ele>121</ele>
        <time>2019-04-30T07:40:39Z</time>
      </trkpt>
      <trkpt lat="48.60359" lon="1.95123">
        <ele>120</ele>
        <time>2019-04-30T07:40:47Z</time>
      </trkpt>
      <trkpt lat="48.60384" lon="1.95108">
        <ele>118</ele>
        <time>2019-04-30T07:40:52Z</time>
      </trkpt>
      <trkpt lat="48.60398" lon="1.95103">
        <ele>118</ele>
        <time>2019-04-30T07:40:53Z</time>
      </trkpt>
      <trkpt lat="48.60417" lon="1.95092">
        <ele>119</ele>
        <time>2019-04-30T07:40:54Z</time>
      </trkpt>
      <trkpt lat="48.60439" lon="1.95082">
        <ele>119</ele>
        <time>2019-04-30T07:40:55Z</time>
      </trkpt>
      <trkpt lat="48.60456" lon="1.95079">
        <ele>119</ele>
        <time>2019-04-30T07:40:56Z</time>
      </trkpt>
      <trkpt lat="48.60465" lon="1.95074">
        <ele>120</ele>
        <time>2019-04-30T07:40:57Z</time>
      </trkpt>
      <trkpt lat="48.60481" lon="1.95063">
        <ele>121</ele>
        <time>2019-04-30T07:40:58Z</time>
      </trkpt>
      <trkpt lat="48.60496" lon="1.95053">
        <ele>121</ele>
        <time>2019-04-30T07:40:59Z</time>
      </trkpt>
      <trkpt lat="48.60514" lon="1.95046">
        <ele>121</ele>
        <time>2019-04-30T07:41:00Z</time>
      </trkpt>
      <trkpt lat="48.60532" lon="1.95034">
        <ele>120</ele>
        <time>2019-04-30T07:41:08Z</time>
      </trkpt>
      <trkpt lat="48.60544" lon="1.95027">
        <ele>119</ele>
        <time>2019-04-30T07:41:09Z</time>
      </trkpt>
      <trkpt lat="48.60551" lon="1.95022">
        <ele>119</ele>
        <time>2019-04-30T07:41:13Z</time>
      </trkpt>
      <trkpt lat="48.60555" lon="1.95021">
        <ele>119</ele>
        <time>2019-04-30T07:41:20Z</time>
      </trkpt>
      <trkpt lat="48.60559" lon="1.95021">
        <ele>119</ele>
        <time>2019-04-30T07:41:21Z</time>
      </trkpt>
      <trkpt lat="48.60565" lon="1.95023">
        <ele>119</ele>
        <time>2019-04-30T07:41:22Z</time>
      </trkpt>
      <trkpt lat="48.60567" lon="1.95021">
        <ele>119</ele>
        <time>2019-04-30T07:41:23Z</time>
      </trkpt>
      <trkpt lat="48.60569" lon="1.95018">
        <ele>119</ele>
        <time>2019-04-30T07:41:24Z</time>
      </trkpt>
      <trkpt lat="48.60571" lon="1.95017">
        <ele>119</ele>
        <time>2019-04-30T07:41:25Z</time>
      </trkpt>
      <trkpt lat="48.60573" lon="1.95016">
        <ele>119</ele>
        <time>2019-04-30T07:41:26Z</time>
      </trkpt>
      <trkpt lat="48.60585" lon="1.95007">
        <ele>118</ele>
        <time>2019-04-30T07:41:27Z</time>
      </trkpt>
      <trkpt lat="48.60587" lon="1.95006">
        <ele>118</ele>
        <time>2019-04-30T07:41:28Z</time>
      </trkpt>
      <trkpt lat="48.60588" lon="1.95006">
        <ele>118</ele>
        <time>2019-04-30T07:41:29Z</time>
      </trkpt>
      <trkpt lat="48.60599" lon="1.94996">
        <ele>119</ele>
        <time>2019-04-30T07:41:30Z</time>
      </trkpt>
      <trkpt lat="48.60612" lon="1.94989">
        <ele>119</ele>
        <time>2019-04-30T07:41:31Z</time>
      </trkpt>
      <trkpt lat="48.60624" lon="1.94983">
        <ele>117</ele>
        <time>2019-04-30T07:41:32Z</time>
      </trkpt>
      <trkpt lat="48.60642" lon="1.94969">
        <ele>119</ele>
        <time>2019-04-30T07:41:33Z</time>
      </trkpt>
      <trkpt lat="48.6065" lon="1.94964">
        <ele>119</ele>
        <time>2019-04-30T07:41:34Z</time>
      </trkpt>
      <trkpt lat="48.60665" lon="1.94963">
        <ele>120</ele>
        <time>2019-04-30T07:41:35Z</time>
      </trkpt>
      <trkpt lat="48.60671" lon="1.94951">
        <ele>119</ele>
        <time>2019-04-30T07:41:36Z</time>
      </trkpt>
      <trkpt lat="48.60676" lon="1.94945">
        <ele>119</ele>
        <time>2019-04-30T07:41:37Z</time>
      </trkpt>
      <trkpt lat="48.60685" lon="1.94945">
        <ele>120</ele>
        <time>2019-04-30T07:41:40Z</time>
      </trkpt>
      <trkpt lat="48.60685" lon="1.94939">
        <ele>120</ele>
        <time>2019-04-30T07:41:41Z</time>
      </trkpt>
      <trkpt lat="48.60686" lon="1.94937">
        <ele>120</ele>
        <time>2019-04-30T07:41:42Z</time>
      </trkpt>
      <trkpt lat="48.60687" lon="1.94937">
        <ele>120</ele>
        <time>2019-04-30T07:41:43Z</time>
      </trkpt>
      <trkpt lat="48.60692" lon="1.94938">
        <ele>120</ele>
        <time>2019-04-30T07:41:44Z</time>
      </trkpt>
      <trkpt lat="48.60714" lon="1.94929">
        <ele>120</ele>
        <time>2019-04-30T07:41:45Z</time>
      </trkpt>
      <trkpt lat="48.6072" lon="1.94925">
        <ele>120</ele>
        <time>2019-04-30T07:41:46Z</time>
      </trkpt>
      <trkpt lat="48.60946" lon="1.94422">
        <ele>125</ele>
        <time>2019-04-30T07:41:54Z</time>
      </trkpt>
      <trkpt lat="48.61041" lon="1.94211">
        <ele>124</ele>
        <time>2019-04-30T07:41:57Z</time>
      </trkpt>
      <trkpt lat="48.61183" lon="1.93938">
        <ele>130</ele>
        <time>2019-04-30T07:41:58Z</time>
      </trkpt>
      <trkpt lat="48.61219" lon="1.93751">
        <ele>131</ele>
        <time>2019-04-30T07:42:08Z</time>
      </trkpt>
      <trkpt lat="48.61303" lon="1.93392">
        <ele>140</ele>
        <time>2019-04-30T07:42:09Z</time>
      </trkpt>
      <trkpt lat="48.61354" lon="1.93222">
        <ele>149</ele>
        <time>2019-04-30T07:42:10Z</time>
      </trkpt>
      <trkpt lat="48.61484" lon="1.93049">
        <ele>172</ele>
        <time>2019-04-30T07:42:15Z</time>
      </trkpt>
      <trkpt lat="48.61624" lon="1.92972">
        <ele>177</ele>
        <time>2019-04-30T07:42:26Z</time>
      </trkpt>
      <trkpt lat="48.61655" lon="1.92941">
        <ele>177</ele>
        <time>2019-04-30T07:42:29Z</time>
      </trkpt>
      <trkpt lat="48.61688" lon="1.92884">
        <ele>178</ele>
        <time>2019-04-30T07:42:34Z</time>
      </trkpt>
      <trkpt lat="48.61713" lon="1.92812">
        <ele>177</ele>
        <time>2019-04-30T07:42:35Z</time>
      </trkpt>
      <trkpt lat="48.61987" lon="1.92227">
        <ele>175</ele>
        <time>2019-04-30T07:42:36Z</time>
      </trkpt>
      <trkpt lat="48.62075" lon="1.92046">
        <ele>178</ele>
        <time>2019-04-30T07:42:37Z</time>
      </trkpt>
      <trkpt lat="48.62416" lon="1.91335">
        <ele>177</ele>
        <time>2019-04-30T07:42:38Z</time>
      </trkpt>
      <trkpt lat="48.62331" lon="1.91252">
        <ele>180</ele>
        <time>2019-04-30T07:42:39Z</time>
      </trkpt>
      <trkpt lat="48.62197" lon="1.91389">
        <ele>174</ele>
        <time>2019-04-30T07:42:40Z</time>
      </trkpt>
      <trkpt lat="48.62065" lon="1.9147">
        <ele>177</ele>
        <time>2019-04-30T07:42:41Z</time>
      </trkpt>
      <trkpt lat="48.61879" lon="1.91692">
        <ele>177</ele>
        <time>2019-04-30T07:42:42Z</time>
      </trkpt>
      <trkpt lat="48.61778" lon="1.91515">
        <ele>178</ele>
        <time>2019-04-30T07:42:43Z</time>
      </trkpt>
      <trkpt lat="48.61758" lon="1.91498">
        <ele>178</ele>
        <time>2019-04-30T07:42:53Z</time>
      </trkpt>
      <trkpt lat="48.61723" lon="1.91465">
        <ele>176</ele>
        <time>2019-04-30T07:43:05Z</time>
      </trkpt>
      <trkpt lat="48.61707" lon="1.91451">
        <ele>173</ele>
        <time>2019-04-30T07:43:17Z</time>
      </trkpt>
      <trkpt lat="48.61693" lon="1.91449">
        <ele>173</ele>
        <time>2019-04-30T07:43:23Z</time>
      </trkpt>
      <trkpt lat="48.61682" lon="1.91445">
        <ele>173</ele>
        <time>2019-04-30T07:43:24Z</time>
      </trkpt>
      <trkpt lat="48.61671" lon="1.91442">
        <ele>172</ele>
        <time>2019-04-30T07:43:25Z</time>
      </trkpt>
      <trkpt lat="48.61657" lon="1.91435">
        <ele>172</ele>
        <time>2019-04-30T07:43:26Z</time>
      </trkpt>
      <trkpt lat="48.61648" lon="1.91433">
        <ele>170</ele>
        <time>2019-04-30T07:43:27Z</time>
      </trkpt>
      <trkpt lat="48.61628" lon="1.91438">
        <ele>170</ele>
        <time>2019-04-30T07:43:28Z</time>
      </trkpt>
      <trkpt lat="48.61604" lon="1.91438">
        <ele>171</ele>
        <time>2019-04-30T07:43:29Z</time>
      </trkpt>
      <trkpt lat="48.61585" lon="1.91437">
        <ele>173</ele>
        <time>2019-04-30T07:43:30Z</time>
      </trkpt>
      <trkpt lat="48.61583" lon="1.91437">
        <ele>173</ele>
        <time>2019-04-30T07:43:31Z</time>
      </trkpt>
      <trkpt lat="48.61582" lon="1.91438">
        <ele>173</ele>
        <time>2019-04-30T07:43:32Z</time>
      </trkpt>
      <trkpt lat="48.61579" lon="1.91439">
        <ele>173</ele>
        <time>2019-04-30T07:43:43Z</time>
      </trkpt>
      <trkpt lat="48.61563" lon="1.91463">
        <ele>172</ele>
        <time>2019-04-30T07:43:56Z</time>
      </trkpt>
      <trkpt lat="48.6156" lon="1.91467">
        <ele>172</ele>
        <time>2019-04-30T07:44:06Z</time>
      </trkpt>
      <trkpt lat="48.61558" lon="1.9147">
        <ele>172</ele>
        <time>2019-04-30T07:44:19Z</time>
      </trkpt>
      <trkpt lat="48.61557" lon="1.91473">
        <ele>172</ele>
        <time>2019-04-30T07:44:32Z</time>
      </trkpt>
      <trkpt lat="48.61553" lon="1.91484">
        <ele>172</ele>
        <time>2019-04-30T07:44:52Z</time>
      </trkpt>
      <trkpt lat="48.61553" lon="1.91507">
        <ele>172</ele>
        <time>2019-04-30T07:45:08Z</time>
      </trkpt>
      <trkpt lat="48.61553" lon="1.91511">
        <ele>172</ele>
        <time>2019-04-30T07:45:38Z</time>
      </trkpt>
      <trkpt lat="48.61554" lon="1.91515">
        <ele>172</ele>
        <time>2019-04-30T07:45:51Z</time>
      </trkpt>
      <trkpt lat="48.61555" lon="1.91536">
        <ele>172</ele>
        <time>2019-04-30T07:46:14Z</time>
      </trkpt>
      <trkpt lat="48.61555" lon="1.91549">
        <ele>172</ele>
        <time>2019-04-30T07:46:40Z</time>
      </trkpt>
      <trkpt lat="48.61556" lon="1.91567">
        <ele>172</ele>
        <time>2019-04-30T07:47:00Z</time>
      </trkpt>
      <trkpt lat="48.61556" lon="1.91578">
        <ele>173</ele>
        <time>2019-04-30T07:47:21Z</time>
      </trkpt>
      <trkpt lat="48.6155" lon="1.91583">
        <ele>173</ele>
        <time>2019-04-30T07:47:30Z</time>
      </trkpt>
      <trkpt lat="48.61537" lon="1.91587">
        <ele>166</ele>
        <time>2019-04-30T07:47:31Z</time>
      </trkpt>
      <trkpt lat="48.61526" lon="1.91595">
        <ele>166</ele>
        <time>2019-04-30T07:47:45Z</time>
      </trkpt>
      <trkpt lat="48.61523" lon="1.91599">
        <ele>166</ele>
        <time>2019-04-30T07:48:00Z</time>
      </trkpt>
      <trkpt lat="48.61518" lon="1.91597">
        <ele>166</ele>
        <time>2019-04-30T07:48:13Z</time>
      </trkpt>
      <trkpt lat="48.61515" lon="1.91603">
        <ele>166</ele>
        <time>2019-04-30T07:48:27Z</time>
      </trkpt>
      <trkpt lat="48.6151" lon="1.91612">
        <ele>160</ele>
        <time>2019-04-30T07:48:40Z</time>
      </trkpt>
      <trkpt lat="48.61484" lon="1.91629">
        <ele>155</ele>
        <time>2019-04-30T07:48:53Z</time>
      </trkpt>
      <trkpt lat="48.61484" lon="1.91622">
        <ele>155</ele>
        <time>2019-04-30T07:49:01Z</time>
      </trkpt>
      <trkpt lat="48.61482" lon="1.91621">
        <ele>155</ele>
        <time>2019-04-30T07:49:02Z</time>
      </trkpt>
      <trkpt lat="48.6148" lon="1.91612">
        <ele>155</ele>
        <time>2019-04-30T07:49:03Z</time>
      </trkpt>
      <trkpt lat="48.61478" lon="1.91607">
        <ele>155</ele>
        <time>2019-04-30T07:49:18Z</time>
      </trkpt>
      <trkpt lat="48.61473" lon="1.91602">
        <ele>155</ele>
        <time>2019-04-30T07:49:34Z</time>
      </trkpt>
      <trkpt lat="48.61462" lon="1.91594">
        <ele>155</ele>
        <time>2019-04-30T07:49:45Z</time>
      </trkpt>
      <trkpt lat="48.61449" lon="1.91582">
        <ele>151</ele>
        <time>2019-04-30T07:50:01Z</time>
      </trkpt>
      <trkpt lat="48.61443" lon="1.91579">
        <ele>151</ele>
        <time>2019-04-30T07:50:15Z</time>
      </trkpt>
      <trkpt lat="48.6144" lon="1.91579">
        <ele>151</ele>
        <time>2019-04-30T07:50:27Z</time>
      </trkpt>
      <trkpt lat="48.61434" lon="1.91586">
        <ele>151</ele>
        <time>2019-04-30T07:50:30Z</time>
      </trkpt>
      <trkpt lat="48.61421" lon="1.91598">
        <ele>149</ele>
        <time>2019-04-30T07:50:42Z</time>
      </trkpt>
      <trkpt lat="48.61407" lon="1.91608">
        <ele>149</ele>
        <time>2019-04-30T07:50:49Z</time>
      </trkpt>
      <trkpt lat="48.61389" lon="1.91625">
        <ele>147</ele>
        <time>2019-04-30T07:50:50Z</time>
      </trkpt>
      <trkpt lat="48.61387" lon="1.91627">
        <ele>147</ele>
        <time>2019-04-30T07:51:03Z</time>
      </trkpt>
      <trkpt lat="48.61373" lon="1.91639">
        <ele>146</ele>
        <time>2019-04-30T07:51:18Z</time>
      </trkpt>
      <trkpt lat="48.61363" lon="1.91649">
        <ele>146</ele>
        <time>2019-04-30T07:51:27Z</time>
      </trkpt>
      <trkpt lat="48.61349" lon="1.91667">
        <ele>148</ele>
        <time>2019-04-30T07:51:36Z</time>
      </trkpt>
      <trkpt lat="48.6134" lon="1.9169">
        <ele>149</ele>
        <time>2019-04-30T07:51:37Z</time>
      </trkpt>
      <trkpt lat="48.61332" lon="1.91725">
        <ele>151</ele>
        <time>2019-04-30T07:51:38Z</time>
      </trkpt>
      <trkpt lat="48.61325" lon="1.91748">
        <ele>152</ele>
        <time>2019-04-30T07:51:50Z</time>
      </trkpt>
      <trkpt lat="48.61321" lon="1.91775">
        <ele>154</ele>
        <time>2019-04-30T07:52:03Z</time>
      </trkpt>
      <trkpt lat="48.61318" lon="1.91802">
        <ele>157</ele>
        <time>2019-04-30T07:52:16Z</time>
      </trkpt>
      <trkpt lat="48.61313" lon="1.91836">
        <ele>158</ele>
        <time>2019-04-30T07:52:27Z</time>
      </trkpt>
      <trkpt lat="48.613" lon="1.91856">
        <ele>159</ele>
        <time>2019-04-30T07:52:33Z</time>
      </trkpt>
      <trkpt lat="48.61291" lon="1.91872">
        <ele>158</ele>
        <time>2019-04-30T07:52:47Z</time>
      </trkpt>
      <trkpt lat="48.61283" lon="1.91884">
        <ele>159</ele>
        <time>2019-04-30T07:52:57Z</time>
      </trkpt>
      <trkpt lat="48.61272" lon="1.91902">
        <ele>159</ele>
        <time>2019-04-30T07:53:11Z</time>
      </trkpt>
      <trkpt lat="48.61263" lon="1.91921">
        <ele>155</ele>
        <time>2019-04-30T07:53:25Z</time>
      </trkpt>
      <trkpt lat="48.61255" lon="1.91937">
        <ele>155</ele>
        <time>2019-04-30T07:53:40Z</time>
      </trkpt>
      <trkpt lat="48.61245" lon="1.91963">
        <ele>155</ele>
        <time>2019-04-30T07:53:51Z</time>
      </trkpt>
      <trkpt lat="48.61236" lon="1.91975">
        <ele>154</ele>
        <time>2019-04-30T07:54:03Z</time>
      </trkpt>
      <trkpt lat="48.61228" lon="1.91981">
        <ele>154</ele>
        <time>2019-04-30T07:54:15Z</time>
      </trkpt>
      <trkpt lat="48.61205" lon="1.91994">
        <ele>154</ele>
        <time>2019-04-30T07:54:27Z</time>
      </trkpt>
      <trkpt lat="48.61194" lon="1.92009">
        <ele>154</ele>
        <time>2019-04-30T07:54:35Z</time>
      </trkpt>
      <trkpt lat="48.61178" lon="1.92018">
        <ele>153</ele>
        <time>2019-04-30T07:54:47Z</time>
      </trkpt>
      <trkpt lat="48.61153" lon="1.92013">
        <ele>154</ele>
        <time>2019-04-30T07:54:57Z</time>
      </trkpt>
      <trkpt lat="48.61148" lon="1.92">
        <ele>151</ele>
        <time>2019-04-30T07:55:07Z</time>
      </trkpt>
      <trkpt lat="48.6113" lon="1.91988">
        <ele>151</ele>
        <time>2019-04-30T07:55:08Z</time>
      </trkpt>
      <trkpt lat="48.61098" lon="1.91975">
        <ele>147</ele>
        <time>2019-04-30T07:55:19Z</time>
      </trkpt>
      <trkpt lat="48.61079" lon="1.91965">
        <ele>146</ele>
        <time>2019-04-30T07:55:30Z</time>
      </trkpt>
      <trkpt lat="48.61065" lon="1.91957">
        <ele>144</ele>
        <time>2019-04-30T07:55:33Z</time>
      </trkpt>
      <trkpt lat="48.61061" lon="1.91954">
        <ele>144</ele>
        <time>2019-04-30T07:55:43Z</time>
      </trkpt>
      <trkpt lat="48.61042" lon="1.9194">
        <ele>144</ele>
        <time>2019-04-30T07:55:53Z</time>
      </trkpt>
      <trkpt lat="48.61029" lon="1.91933">
        <ele>141</ele>
        <time>2019-04-30T07:56:03Z</time>
      </trkpt>
      <trkpt lat="48.61011" lon="1.91924">
        <ele>137</ele>
        <time>2019-04-30T07:56:05Z</time>
      </trkpt>
      <trkpt lat="48.60987" lon="1.91912">
        <ele>137</ele>
        <time>2019-04-30T07:56:06Z</time>
      </trkpt>
      <trkpt lat="48.60969" lon="1.91896">
        <ele>136</ele>
        <time>2019-04-30T07:56:07Z</time>
      </trkpt>
      <trkpt lat="48.60965" lon="1.91885">
        <ele>136</ele>
        <time>2019-04-30T07:56:08Z</time>
      </trkpt>
      <trkpt lat="48.60959" lon="1.91877">
        <ele>136</ele>
        <time>2019-04-30T07:56:09Z</time>
      </trkpt>
      <trkpt lat="48.60945" lon="1.91878">
        <ele>136</ele>
        <time>2019-04-30T07:56:10Z</time>
      </trkpt>
      <trkpt lat="48.60932" lon="1.91885">
        <ele>136</ele>
        <time>2019-04-30T07:56:11Z</time>
      </trkpt>
      <trkpt lat="48.60928" lon="1.9189">
        <ele>135</ele>
        <time>2019-04-30T07:56:13Z</time>
      </trkpt>
      <trkpt lat="48.6093" lon="1.91889">
        <ele>135</ele>
        <time>2019-04-30T07:56:25Z</time>
      </trkpt>
      <trkpt lat="48.6093" lon="1.91859">
        <ele>132</ele>
        <time>2019-04-30T07:56:37Z</time>
      </trkpt>
      <trkpt lat="48.60926" lon="1.91844">
        <ele>130</ele>
        <time>2019-04-30T07:56:52Z</time>
      </trkpt>
      <trkpt lat="48.60914" lon="1.9183">
        <ele>130</ele>
        <time>2019-04-30T07:56:55Z</time>
      </trkpt>
      <trkpt lat="48.60912" lon="1.91829">
        <ele>130</ele>
        <time>2019-04-30T07:57:05Z</time>
      </trkpt>
      <trkpt lat="48.609" lon="1.91816">
        <ele>126</ele>
        <time>2019-04-30T07:57:06Z</time>
      </trkpt>
      <trkpt lat="48.60897" lon="1.91813">
        <ele>126</ele>
        <time>2019-04-30T07:57:15Z</time>
      </trkpt>
      <trkpt lat="48.60896" lon="1.91811">
        <ele>126</ele>
        <time>2019-04-30T07:57:16Z</time>
      </trkpt>
      <trkpt lat="48.60892" lon="1.91807">
        <ele>126</ele>
        <time>2019-04-30T07:57:17Z</time>
      </trkpt>
      <trkpt lat="48.60879" lon="1.91778">
        <ele>126</ele>
        <time>2019-04-30T07:57:18Z</time>
      </trkpt>
      <trkpt lat="48.60879" lon="1.91776">
        <ele>126</ele>
        <time>2019-04-30T07:57:29Z</time>
      </trkpt>
      <trkpt lat="48.60866" lon="1.91746">
        <ele>126</ele>
        <time>2019-04-30T07:57:42Z</time>
      </trkpt>
      <trkpt lat="48.60865" lon="1.91744">
        <ele>126</ele>
        <time>2019-04-30T07:57:53Z</time>
      </trkpt>
      <trkpt lat="48.60853" lon="1.91731">
        <ele>126</ele>
        <time>2019-04-30T07:58:05Z</time>
      </trkpt>
      <trkpt lat="48.60853" lon="1.91729">
        <ele>126</ele>
        <time>2019-04-30T07:58:11Z</time>
      </trkpt>
      <trkpt lat="48.60859" lon="1.91719">
        <ele>126</ele>
        <time>2019-04-30T07:58:23Z</time>
      </trkpt>
      <trkpt lat="48.60867" lon="1.91696">
        <ele>126</ele>
        <time>2019-04-30T07:58:34Z</time>
      </trkpt>
      <trkpt lat="48.60875" lon="1.91677">
        <ele>126</ele>
        <time>2019-04-30T07:58:41Z</time>
      </trkpt>
      <trkpt lat="48.60886" lon="1.9165">
        <ele>126</ele>
        <time>2019-04-30T07:58:51Z</time>
      </trkpt>
      <trkpt lat="48.60895" lon="1.9162">
        <ele>126</ele>
        <time>2019-04-30T07:59:00Z</time>
      </trkpt>
      <trkpt lat="48.60901" lon="1.91596">
        <ele>127</ele>
        <time>2019-04-30T07:59:11Z</time>
      </trkpt>
      <trkpt lat="48.60906" lon="1.91569">
        <ele>128</ele>
        <time>2019-04-30T07:59:23Z</time>
      </trkpt>
      <trkpt lat="48.60912" lon="1.91539">
        <ele>128</ele>
        <time>2019-04-30T07:59:46Z</time>
      </trkpt>
      <trkpt lat="48.60916" lon="1.9152">
        <ele>128</ele>
        <time>2019-04-30T08:00:09Z</time>
      </trkpt>
      <trkpt lat="48.60923" lon="1.91497">
        <ele>128</ele>
        <time>2019-04-30T08:00:13Z</time>
      </trkpt>
      <trkpt lat="48.60923" lon="1.91491">
        <ele>128</ele>
        <time>2019-04-30T08:00:21Z</time>
      </trkpt>
      <trkpt lat="48.60926" lon="1.91464">
        <ele>129</ele>
        <time>2019-04-30T08:00:37Z</time>
      </trkpt>
      <trkpt lat="48.60923" lon="1.91436">
        <ele>129</ele>
        <time>2019-04-30T08:00:40Z</time>
      </trkpt>
      <trkpt lat="48.60919" lon="1.91389">
        <ele>129</ele>
        <time>2019-04-30T08:00:49Z</time>
      </trkpt>
      <trkpt lat="48.60919" lon="1.91356">
        <ele>129</ele>
        <time>2019-04-30T08:00:53Z</time>
      </trkpt>
      <trkpt lat="48.60924" lon="1.91332">
        <ele>130</ele>
        <time>2019-04-30T08:00:55Z</time>
      </trkpt>
      <trkpt lat="48.60931" lon="1.91306">
        <ele>128</ele>
        <time>2019-04-30T08:01:10Z</time>
      </trkpt>
      <trkpt lat="48.6094" lon="1.91293">
        <ele>128</ele>
        <time>2019-04-30T08:01:11Z</time>
      </trkpt>
      <trkpt lat="48.60943" lon="1.9129">
        <ele>129</ele>
        <time>2019-04-30T08:01:16Z</time>
      </trkpt>
      <trkpt lat="48.60952" lon="1.9127">
        <ele>129</ele>
        <time>2019-04-30T08:01:27Z</time>
      </trkpt>
      <trkpt lat="48.60964" lon="1.9126">
        <ele>130</ele>
        <time>2019-04-30T08:01:31Z</time>
      </trkpt>
      <trkpt lat="48.60971" lon="1.91246">
        <ele>130</ele>
        <time>2019-04-30T08:01:36Z</time>
      </trkpt>
      <trkpt lat="48.60979" lon="1.91235">
        <ele>129</ele>
        <time>2019-04-30T08:01:48Z</time>
      </trkpt>
      <trkpt lat="48.60983" lon="1.91229">
        <ele>129</ele>
        <time>2019-04-30T08:01:50Z</time>
      </trkpt>
      <trkpt lat="48.60989" lon="1.91214">
        <ele>127</ele>
        <time>2019-04-30T08:01:53Z</time>
      </trkpt>
      <trkpt lat="48.60989" lon="1.91211">
        <ele>127</ele>
        <time>2019-04-30T08:01:55Z</time>
      </trkpt>
      <trkpt lat="48.60995" lon="1.91199">
        <ele>127</ele>
        <time>2019-04-30T08:02:06Z</time>
      </trkpt>
      <trkpt lat="48.61004" lon="1.91178">
        <ele>127</ele>
        <time>2019-04-30T08:02:18Z</time>
      </trkpt>
      <trkpt lat="48.61007" lon="1.91168">
        <ele>127</ele>
        <time>2019-04-30T08:02:31Z</time>
      </trkpt>
      <trkpt lat="48.61009" lon="1.91155">
        <ele>127</ele>
        <time>2019-04-30T08:02:37Z</time>
      </trkpt>
    </trkseg>
  </trk>
</gpx>